createdAt,value
2019-02-17T00:00:59.299Z,60.83
2019-02-17T00:03:26.755Z,51.80
2019-02-17T00:05:54.221Z,73.63
2019-02-17T00:08:21.582Z,74.33
2019-02-17T00:10:49.053Z,71.53
2019-02-17T00:13:16.617Z,64.77
2019-02-17T00:15:44.361Z,72.97
2019-02-17T00:18:11.865Z,75.40
2019-02-17T00:20:39.366Z,72.57
2019-02-17T00:23:06.839Z,62.17
2019-02-17T00:25:34.354Z,55.20
2019-02-17T00:28:01.888Z,55.60
2019-02-17T00:30:29.483Z,49.53
2019-02-17T00:32:56.912Z,49.63
2019-02-17T00:35:24.360Z,48.27
2019-02-17T00:37:51.787Z,58.97
2019-02-17T00:40:19.252Z,62.43
2019-02-17T00:42:46.661Z,55.63
2019-02-17T00:45:14.134Z,44.00
2019-02-17T00:47:41.578Z,50.53
2019-02-17T00:50:09.456Z,57.43
2019-02-17T00:52:36.849Z,57.80
2019-02-17T00:55:04.701Z,53.03
2019-02-17T00:57:32.133Z,53.07
2019-02-17T00:59:59.641Z,48.53
2019-02-17T01:02:27.176Z,54.00
2019-02-17T01:04:54.646Z,52.80
2019-02-17T01:07:22.021Z,47.27
2019-02-17T01:09:49.473Z,58.30
2019-02-17T01:12:16.902Z,50.90
2019-02-17T01:14:44.362Z,47.00
2019-02-17T01:17:11.766Z,49.93
2019-02-17T01:19:39.225Z,48.67
2019-02-17T01:22:06.712Z,49.40
2019-02-17T01:24:34.276Z,49.17
2019-02-17T01:27:01.730Z,53.17
2019-02-17T01:29:29.533Z,51.77
2019-02-17T01:31:57.032Z,48.00
2019-02-17T01:34:24.473Z,53.97
2019-02-17T01:36:51.942Z,47.33
2019-02-17T01:39:19.386Z,53.77
2019-02-17T01:41:46.842Z,48.57
2019-02-17T01:44:14.278Z,47.30
2019-02-17T01:46:41.744Z,46.30
2019-02-17T01:49:09.193Z,48.23
2019-02-17T01:51:36.602Z,54.03
2019-02-17T01:54:04.058Z,53.20
2019-02-17T01:56:31.522Z,51.50
2019-02-17T01:58:58.909Z,50.53
2019-02-17T02:01:26.390Z,47.60
2019-02-17T02:03:53.820Z,42.97
2019-02-17T02:06:21.297Z,37.60
2019-02-17T02:08:48.800Z,47.67
2019-02-17T02:11:16.442Z,42.67
2019-02-17T02:13:44.073Z,47.57
2019-02-17T02:16:11.546Z,51.80
2019-02-17T02:18:39.391Z,52.27
2019-02-17T02:21:09.909Z,47.23
2019-02-17T02:23:37.461Z,52.57
2019-02-17T02:26:04.896Z,46.60
2019-02-17T02:28:32.783Z,38.10
2019-02-17T02:31:00.454Z,53.23
2019-02-17T02:33:27.983Z,57.17
2019-02-17T02:35:55.387Z,47.00
2019-02-17T02:38:22.876Z,45.87
2019-02-17T02:40:50.305Z,52.73
2019-02-17T02:43:17.821Z,48.03
2019-02-17T02:45:45.265Z,50.80
2019-02-17T02:48:12.674Z,48.80
2019-02-17T02:50:40.072Z,51.03
2019-02-17T02:53:07.505Z,43.97
2019-02-17T02:55:34.984Z,47.83
2019-02-17T02:58:02.491Z,52.27
2019-02-17T03:00:29.890Z,48.47
2019-02-17T03:02:57.346Z,47.03
2019-02-17T03:05:24.841Z,46.77
2019-02-17T03:07:52.226Z,46.67
2019-02-17T03:10:19.687Z,44.17
2019-02-17T03:12:47.157Z,37.50
2019-02-17T03:15:14.565Z,45.93
2019-02-17T03:17:41.991Z,37.50
2019-02-17T03:20:09.849Z,47.90
2019-02-17T03:22:37.259Z,42.30
2019-02-17T03:25:05.039Z,40.53
2019-02-17T03:27:32.466Z,34.60
2019-02-17T03:30:05.189Z,34.07
2019-02-17T03:32:29.309Z,34.73
2019-02-17T03:34:56.751Z,33.50
2019-02-17T03:37:24.248Z,35.93
2019-02-17T03:39:51.700Z,38.10
2019-02-17T03:42:19.155Z,35.37
2019-02-17T03:44:46.609Z,35.67
2019-02-17T03:47:14.085Z,30.67
2019-02-17T03:49:41.462Z,35.83
2019-02-17T03:52:08.982Z,38.17
2019-02-17T03:54:36.431Z,28.87
2019-02-17T03:57:03.893Z,44.30
2019-02-17T03:59:31.322Z,44.43
2019-02-17T04:01:58.834Z,40.40
2019-02-17T04:04:26.248Z,41.73
2019-02-17T04:06:53.781Z,42.37
2019-02-17T04:09:21.261Z,41.17
2019-02-17T04:11:48.632Z,40.13
2019-02-17T04:14:16.087Z,47.07
2019-02-17T04:16:43.627Z,36.17
2019-02-17T04:19:11.099Z,41.40
2019-02-17T04:21:38.525Z,44.07
2019-02-17T04:24:06.012Z,43.50
2019-02-17T04:26:33.608Z,44.27
2019-02-17T04:29:01.168Z,39.97
2019-02-17T04:31:28.599Z,39.77
2019-02-17T04:33:56.032Z,42.77
2019-02-17T04:36:23.380Z,38.40
2019-02-17T04:38:50.792Z,43.60
2019-02-17T04:41:18.212Z,38.40
2019-02-17T04:43:45.659Z,46.17
2019-02-17T04:46:13.026Z,42.10
2019-02-17T04:48:40.500Z,41.00
2019-02-17T04:51:07.927Z,46.60
2019-02-17T04:53:35.301Z,41.73
2019-02-17T04:56:02.803Z,38.60
2019-02-17T04:58:30.242Z,40.77
2019-02-17T05:00:57.690Z,41.80
2019-02-17T05:03:25.098Z,43.87
2019-02-17T05:05:52.549Z,41.60
2019-02-17T05:08:19.993Z,41.33
2019-02-17T05:10:47.349Z,47.93
2019-02-17T05:13:14.782Z,44.17
2019-02-17T05:15:42.246Z,35.60
2019-02-17T05:18:09.686Z,41.20
2019-02-17T05:20:37.127Z,38.43
2019-02-17T05:23:04.631Z,41.90
2019-02-17T05:25:32.119Z,41.60
2019-02-17T05:27:59.702Z,42.20
2019-02-17T05:30:27.257Z,39.83
2019-02-17T05:32:54.667Z,37.10
2019-02-17T05:35:22.089Z,35.03
2019-02-17T05:37:49.634Z,37.17
2019-02-17T05:40:17.017Z,36.97
2019-02-17T05:42:44.507Z,36.27
2019-02-17T05:45:12.108Z,44.53
2019-02-17T05:47:39.560Z,42.00
2019-02-17T05:50:06.948Z,43.60
2019-02-17T05:52:34.477Z,41.70
2019-02-17T05:55:01.933Z,42.70
2019-02-17T05:57:29.365Z,38.30
2019-02-17T05:59:56.883Z,39.70
2019-02-17T06:02:24.726Z,40.47
2019-02-17T06:04:52.379Z,36.17
2019-02-17T06:07:19.957Z,36.57
2019-02-17T06:09:47.522Z,34.40
2019-02-17T06:12:14.949Z,43.70
2019-02-17T06:14:42.629Z,42.90
2019-02-17T06:17:10.076Z,37.93
2019-02-17T06:19:37.512Z,38.43
2019-02-17T06:22:05.185Z,33.03
2019-02-17T06:24:32.792Z,35.33
2019-02-17T06:27:00.154Z,39.20
2019-02-17T06:29:27.734Z,40.90
2019-02-17T06:31:55.293Z,40.57
2019-02-17T06:34:22.666Z,34.73
2019-02-17T06:36:50.128Z,41.47
2019-02-17T06:39:17.615Z,40.13
2019-02-17T06:41:45.048Z,39.97
2019-02-17T06:44:12.505Z,39.67
2019-02-17T06:46:44.967Z,97.47
2019-02-17T06:49:12.361Z,73.30
2019-02-17T06:51:39.822Z,136.87
2019-02-17T06:54:07.245Z,41.63
2019-02-17T06:56:44.823Z,42.40
2019-02-17T06:59:12.248Z,45.50
2019-02-17T07:01:39.618Z,42.27
2019-02-17T07:04:07.027Z,47.07
2019-02-17T07:06:44.036Z,42.47
2019-02-17T07:09:11.522Z,41.73
2019-02-17T07:11:39.020Z,51.97
2019-02-17T07:14:06.412Z,52.03
2019-02-17T07:16:33.943Z,82.03
2019-02-17T07:19:01.384Z,82.27
2019-02-17T07:21:28.973Z,78.20
2019-02-17T07:23:56.522Z,89.80
2019-02-17T07:26:24.227Z,83.27
2019-02-17T07:28:51.761Z,80.97
2019-02-17T07:31:19.234Z,89.37
2019-02-17T07:33:46.747Z,99.00
2019-02-17T07:36:14.220Z,110.03
2019-02-17T07:38:41.648Z,102.20
2019-02-17T07:41:09.122Z,88.00
2019-02-17T07:43:36.516Z,87.27
2019-02-17T07:46:04.093Z,77.63
2019-02-17T07:48:31.821Z,82.97
2019-02-17T07:50:59.265Z,82.63
2019-02-17T07:53:26.746Z,69.83
2019-02-17T07:55:54.219Z,77.63
2019-02-17T07:58:21.637Z,70.27
2019-02-17T08:00:49.068Z,66.30
2019-02-17T08:03:16.507Z,60.13
2019-02-17T08:05:43.988Z,56.23
2019-02-17T08:08:11.510Z,52.70
2019-02-17T08:10:38.963Z,46.90
2019-02-17T08:13:06.347Z,52.70
2019-02-17T08:15:33.728Z,49.10
2019-02-17T08:18:01.178Z,49.00
2019-02-17T08:20:30.928Z,47.37
2019-02-17T08:22:58.373Z,54.97
2019-02-17T08:25:25.864Z,56.00
2019-02-17T08:27:53.377Z,49.30
2019-02-17T08:30:20.830Z,43.43
2019-02-17T08:32:48.237Z,52.87
2019-02-17T08:35:15.814Z,42.83
2019-02-17T08:37:43.461Z,42.17
2019-02-17T08:40:11.065Z,42.10
2019-02-17T08:42:38.595Z,42.17
2019-02-17T08:45:07.663Z,36.90
2019-02-17T08:47:35.949Z,39.70
2019-02-17T08:50:04.749Z,39.47
2019-02-17T08:52:32.207Z,39.67
2019-02-17T08:54:59.692Z,38.63
2019-02-17T08:57:27.174Z,38.13
2019-02-17T08:59:54.648Z,38.77
2019-02-17T09:02:22.148Z,42.23
2019-02-17T09:04:49.560Z,36.33
2019-02-17T09:07:17.144Z,39.87
2019-02-17T09:09:44.771Z,39.87
2019-02-17T09:12:12.222Z,40.10
2019-02-17T09:14:39.591Z,38.63
2019-02-17T09:17:07.044Z,38.40
2019-02-17T09:19:34.582Z,42.07
2019-02-17T09:22:02.019Z,39.53
2019-02-17T09:24:29.448Z,40.47
2019-02-17T09:26:56.942Z,36.57
2019-02-17T09:29:24.968Z,38.60
2019-02-17T09:31:52.358Z,36.80
2019-02-17T09:34:19.861Z,37.77
2019-02-17T09:36:47.403Z,37.63
2019-02-17T09:39:14.922Z,40.80
2019-02-17T09:41:42.354Z,35.13
2019-02-17T09:44:09.797Z,31.33
2019-02-17T09:46:37.243Z,30.93
2019-02-17T09:49:04.741Z,37.93
2019-02-17T09:51:32.171Z,32.23
2019-02-17T09:53:59.652Z,32.37
2019-02-17T09:56:27.068Z,34.47
2019-02-17T09:58:54.818Z,32.13
2019-02-17T10:01:22.269Z,29.40
2019-02-17T10:03:49.659Z,31.33
2019-02-17T10:06:17.954Z,33.13
2019-02-17T10:08:45.366Z,31.00
2019-02-17T10:11:14.054Z,30.63
2019-02-17T10:13:41.577Z,32.50
2019-02-17T10:16:09.152Z,29.67
2019-02-17T10:18:36.739Z,30.50
2019-02-17T10:21:04.377Z,32.50
2019-02-17T10:23:31.773Z,33.13
2019-02-17T10:25:59.315Z,34.10
2019-02-17T10:28:26.838Z,29.80
2019-02-17T10:30:54.411Z,27.60
2019-02-17T10:33:23.023Z,29.73
2019-02-17T10:35:50.413Z,30.87
2019-02-17T10:38:18.035Z,31.67
2019-02-17T10:40:46.302Z,32.40
2019-02-17T10:43:14.329Z,34.83
2019-02-17T10:45:41.803Z,26.53
2019-02-17T10:48:09.230Z,32.07
2019-02-17T10:50:36.625Z,27.10
2019-02-17T10:53:04.308Z,28.47
2019-02-17T10:55:31.823Z,29.17
2019-02-17T10:57:59.361Z,27.87
2019-02-17T11:00:28.829Z,28.83
2019-02-17T11:03:02.842Z,25.03
2019-02-17T11:05:30.324Z,24.37
2019-02-17T11:07:57.783Z,26.93
2019-02-17T11:10:25.231Z,26.30
2019-02-17T11:12:52.672Z,25.73
2019-02-17T11:15:20.207Z,24.60
2019-02-17T11:17:47.623Z,25.27
2019-02-17T11:20:15.084Z,25.43
2019-02-17T11:22:42.542Z,30.17
2019-02-17T11:25:10.051Z,30.73
2019-02-17T11:27:37.599Z,27.20
2019-02-17T11:30:06.937Z,31.33
2019-02-17T11:32:34.469Z,25.07
2019-02-17T11:35:02.381Z,19.40
2019-02-17T11:37:30.023Z,26.50
2019-02-17T11:39:57.511Z,21.00
2019-02-17T11:42:25.242Z,26.07
2019-02-17T11:44:52.791Z,20.17
2019-02-17T11:47:20.288Z,20.63
2019-02-17T11:49:48.013Z,20.77
2019-02-17T11:52:15.842Z,21.60
2019-02-17T11:54:43.258Z,28.57
2019-02-17T11:57:10.793Z,24.47
2019-02-17T11:59:38.161Z,24.63
2019-02-17T12:02:05.721Z,21.87
2019-02-17T12:04:33.864Z,26.80
2019-02-17T12:07:01.702Z,22.87
2019-02-17T12:09:29.072Z,23.47
2019-02-17T12:11:56.851Z,23.83
2019-02-17T12:14:32.857Z,20.60
2019-02-17T12:17:00.571Z,24.83
2019-02-17T12:19:28.048Z,18.93
2019-02-17T12:22:15.093Z,16.40
2019-02-17T12:24:49.817Z,20.33
2019-02-17T12:27:25.554Z,17.93
2019-02-17T12:29:57.348Z,19.90
2019-02-17T12:32:29.051Z,20.40
2019-02-17T12:34:56.608Z,18.30
2019-02-17T12:37:24.058Z,15.10
2019-02-17T12:39:51.524Z,22.13
2019-02-17T12:42:19.006Z,18.57
2019-02-17T12:44:46.575Z,16.77
2019-02-17T12:47:14.165Z,15.37
2019-02-17T12:49:41.573Z,14.87
2019-02-17T12:52:09.047Z,17.17
2019-02-17T12:54:36.515Z,14.00
2019-02-17T12:57:04.011Z,16.23
2019-02-17T12:59:31.439Z,17.23
2019-02-17T13:01:59.203Z,14.83
2019-02-17T13:04:26.596Z,13.40
2019-02-17T13:06:54.053Z,15.07
2019-02-17T13:09:21.517Z,14.60
2019-02-17T13:11:48.884Z,15.73
2019-02-17T13:14:16.337Z,13.23
2019-02-17T13:16:43.796Z,20.97
2019-02-17T13:19:11.224Z,15.13
2019-02-17T13:21:38.712Z,15.83
2019-02-17T13:24:06.062Z,18.20
2019-02-17T13:26:33.513Z,17.63
2019-02-17T13:29:00.986Z,15.50
2019-02-17T13:31:28.454Z,13.93
2019-02-17T13:33:55.839Z,15.97
2019-02-17T13:36:23.437Z,12.40
2019-02-17T13:38:50.938Z,11.20
2019-02-17T13:41:18.499Z,14.93
2019-02-17T13:43:45.882Z,17.10
2019-02-17T13:46:13.480Z,13.63
2019-02-17T13:48:40.992Z,12.17
2019-02-17T13:51:08.465Z,12.63
2019-02-17T13:53:35.971Z,10.57
2019-02-17T13:56:03.425Z,10.80
2019-02-17T13:58:30.882Z,10.63
2019-02-17T14:00:58.570Z,13.30
2019-02-17T14:03:26.027Z,11.80
2019-02-17T14:05:53.460Z,13.90
2019-02-17T14:08:21.054Z,12.93
2019-02-17T14:10:48.477Z,11.47
2019-02-17T14:13:15.936Z,8.87
2019-02-17T14:15:45.648Z,10.00
2019-02-17T14:18:13.137Z,12.33
2019-02-17T14:20:40.617Z,14.27
2019-02-17T14:23:08.043Z,9.30
2019-02-17T14:25:35.567Z,9.37
2019-02-17T14:28:03.222Z,10.77
2019-02-17T14:30:30.780Z,9.13
2019-02-17T14:32:58.140Z,10.73
2019-02-17T14:35:25.632Z,9.00
2019-02-17T14:37:53.071Z,11.93
2019-02-17T14:40:20.754Z,10.63
2019-02-17T14:42:48.209Z,10.00
2019-02-17T14:45:15.691Z,14.73
2019-02-17T14:47:43.256Z,12.23
2019-02-17T14:50:10.860Z,13.70
2019-02-17T14:52:38.303Z,13.23
2019-02-17T14:55:05.852Z,10.70
2019-02-17T14:57:33.282Z,12.17
2019-02-17T15:00:00.729Z,10.53
2019-02-17T15:02:28.117Z,11.77
2019-02-17T15:04:55.568Z,9.27
2019-02-17T15:07:23.026Z,11.50
2019-02-17T15:09:50.391Z,8.20
2019-02-17T15:12:17.834Z,12.10
2019-02-17T15:14:45.809Z,14.20
2019-02-17T15:17:14.784Z,14.63
2019-02-17T15:19:42.528Z,12.03
2019-02-17T15:22:09.970Z,13.67
2019-02-17T15:24:37.337Z,16.77
2019-02-17T15:27:04.786Z,12.47
2019-02-17T15:29:32.277Z,11.93
2019-02-17T15:31:59.945Z,13.00
2019-02-17T15:34:27.431Z,12.00
2019-02-17T15:36:54.827Z,14.07
2019-02-17T15:39:22.310Z,17.27
2019-02-17T15:41:49.739Z,13.93
2019-02-17T15:44:17.166Z,14.03
2019-02-17T15:46:44.666Z,14.40
2019-02-17T15:49:12.245Z,10.73
2019-02-17T15:51:39.630Z,18.87
2019-02-17T15:54:07.097Z,17.10
2019-02-17T15:56:34.554Z,17.50
2019-02-17T15:59:01.924Z,16.27
2019-02-17T16:01:29.367Z,18.73
2019-02-17T16:03:56.800Z,23.67
2019-02-17T16:06:24.147Z,22.07
2019-02-17T16:08:52.410Z,25.10
2019-02-17T16:11:19.945Z,24.30
2019-02-17T16:13:47.313Z,20.60
2019-02-17T16:16:14.737Z,18.77
2019-02-17T16:18:42.171Z,21.10
2019-02-17T16:21:09.711Z,19.33
2019-02-17T16:23:37.226Z,31.27
2019-02-17T16:26:04.661Z,33.50
2019-02-17T16:28:32.115Z,25.77
2019-02-17T16:30:59.598Z,42.13
2019-02-17T16:33:27.106Z,22.07
2019-02-17T16:35:54.579Z,23.70
2019-02-17T16:38:22.053Z,23.93
2019-02-17T16:40:49.795Z,24.07
2019-02-17T16:43:17.186Z,18.93
2019-02-17T16:45:44.667Z,26.20
2019-02-17T16:48:12.118Z,23.03
2019-02-17T16:50:39.684Z,25.13
2019-02-17T16:53:07.130Z,26.60
2019-02-17T16:55:34.570Z,25.23
2019-02-17T16:58:02.057Z,32.90
2019-02-17T17:00:29.693Z,32.27
2019-02-17T17:02:58.223Z,29.77
2019-02-17T17:05:25.803Z,36.17
2019-02-17T17:07:53.986Z,27.93
2019-02-17T17:10:21.779Z,29.60
2019-02-17T17:12:49.262Z,27.90
2019-02-17T17:15:17.158Z,30.43
2019-02-17T17:17:44.717Z,25.27
2019-02-17T17:20:12.890Z,25.83
2019-02-17T17:22:40.442Z,27.43
2019-02-17T17:25:08.334Z,23.17
2019-02-17T17:27:35.833Z,28.10
2019-02-17T17:30:04.039Z,32.70
2019-02-17T17:32:31.565Z,30.23
2019-02-17T17:34:59.519Z,25.37
2019-02-17T17:37:27.252Z,23.43
2019-02-17T17:39:54.751Z,26.60
2019-02-17T17:42:22.140Z,28.30
2019-02-17T17:44:49.604Z,30.50
2019-02-17T17:47:17.177Z,27.43
2019-02-17T17:49:44.552Z,25.17
2019-02-17T17:52:12.122Z,42.23
2019-02-17T17:54:39.572Z,24.83
2019-02-17T17:57:07.019Z,27.33
2019-02-17T17:59:34.530Z,29.67
2019-02-17T18:02:01.947Z,22.67
2019-02-17T18:04:29.365Z,26.83
2019-02-17T18:06:57.209Z,27.27
2019-02-17T18:09:24.841Z,30.27
2019-02-17T18:11:52.240Z,31.10
2019-02-17T18:14:19.752Z,29.77
2019-02-17T18:16:47.225Z,30.70
2019-02-17T18:19:14.670Z,31.77
2019-02-17T18:21:42.025Z,34.53
2019-02-17T18:24:09.480Z,30.63
2019-02-17T18:26:36.912Z,32.77
2019-02-17T18:29:04.350Z,32.80
2019-02-17T18:31:31.776Z,30.27
2019-02-17T18:33:59.215Z,30.30
2019-02-17T18:36:26.649Z,29.53
2019-02-17T18:38:54.100Z,34.13
2019-02-17T18:41:21.510Z,31.47
2019-02-17T18:43:48.970Z,34.30
2019-02-17T18:46:16.398Z,31.67
2019-02-17T18:48:43.811Z,24.47
2019-02-17T18:51:11.310Z,27.57
2019-02-17T18:53:38.907Z,27.47
2019-02-17T18:56:06.343Z,25.43
2019-02-17T18:58:33.809Z,30.07
2019-02-17T19:01:01.249Z,26.73
2019-02-17T19:03:28.685Z,26.63
2019-02-17T19:05:56.178Z,28.10
2019-02-17T19:08:23.740Z,26.90
2019-02-17T19:10:52.036Z,22.73
2019-02-17T19:13:19.508Z,23.73
2019-02-17T19:15:47.015Z,22.40
2019-02-17T19:18:14.443Z,24.23
2019-02-17T19:20:42.083Z,25.83
2019-02-17T19:23:09.581Z,21.53
2019-02-17T19:25:37.176Z,22.80
2019-02-17T19:28:04.749Z,24.40
2019-02-17T19:30:32.670Z,22.90
2019-02-17T19:33:00.090Z,25.93
2019-02-17T19:35:27.571Z,27.77
2019-02-17T19:37:55.116Z,26.13
2019-02-17T19:40:22.657Z,24.73
2019-02-17T19:42:50.136Z,28.53
2019-02-17T19:45:18.526Z,33.77
2019-02-17T19:47:46.015Z,26.50
2019-02-17T19:50:13.697Z,28.80
2019-02-17T19:52:41.317Z,26.30
2019-02-17T19:55:10.026Z,29.33
2019-02-17T19:57:38.939Z,32.80
2019-02-17T20:00:10.587Z,27.90
2019-02-17T20:02:48.767Z,29.37
2019-02-17T20:05:18.705Z,28.37
2019-02-17T20:07:46.278Z,22.97
2019-02-17T20:10:13.743Z,28.27
2019-02-17T20:12:42.522Z,26.07
2019-02-17T20:15:09.945Z,29.10
2019-02-17T20:17:37.624Z,24.57
2019-02-17T20:20:05.262Z,25.47
2019-02-17T20:22:32.751Z,25.37
2019-02-17T20:25:00.519Z,22.37
2019-02-17T20:27:28.097Z,25.87
2019-02-17T20:29:56.404Z,23.53
2019-02-17T20:32:23.993Z,18.97
2019-02-17T20:34:51.743Z,21.73
2019-02-17T20:37:20.821Z,21.60
2019-02-17T20:39:48.308Z,24.00
2019-02-17T20:42:15.832Z,22.67
2019-02-17T20:44:43.710Z,20.70
2019-02-17T20:47:11.128Z,20.30
2019-02-17T20:49:38.585Z,20.03
2019-02-17T20:52:06.758Z,22.17
2019-02-17T20:54:34.366Z,22.83
2019-02-17T20:57:01.996Z,21.93
2019-02-17T20:59:29.440Z,21.97
2019-02-17T21:01:56.908Z,18.50
2019-02-17T21:04:24.466Z,23.97
2019-02-17T21:06:51.993Z,18.37
2019-02-17T21:09:19.640Z,21.10
2019-02-17T21:11:47.580Z,18.33
2019-02-17T21:14:15.261Z,22.97
2019-02-17T21:16:42.887Z,22.23
2019-02-17T21:19:10.428Z,23.00
2019-02-17T21:21:37.896Z,20.03
2019-02-17T21:24:05.742Z,21.80
2019-02-17T21:26:33.210Z,26.03
2019-02-17T21:29:00.781Z,20.90
2019-02-17T21:31:28.887Z,34.37
2019-02-17T21:34:08.485Z,43.13
2019-02-17T21:36:35.993Z,51.60
2019-02-17T21:39:04.479Z,47.50
2019-02-17T21:41:31.893Z,45.67
2019-02-17T21:43:59.366Z,39.23
2019-02-17T21:46:26.947Z,39.07
2019-02-17T21:48:54.441Z,38.03
2019-02-17T21:51:21.875Z,36.23
2019-02-17T21:53:49.322Z,37.17
2019-02-17T21:56:16.896Z,34.70
2019-02-17T21:58:44.433Z,32.33
2019-02-17T22:01:11.876Z,39.03
2019-02-17T22:03:39.322Z,34.17
2019-02-17T22:06:06.768Z,38.63
2019-02-17T22:08:34.282Z,51.50
2019-02-17T22:11:01.781Z,56.63
2019-02-17T22:13:29.162Z,59.77
2019-02-17T22:15:56.597Z,69.33
2019-02-17T22:18:24.174Z,74.97
2019-02-17T22:20:51.657Z,71.90
2019-02-17T22:23:19.138Z,67.70
2019-02-17T22:25:46.650Z,84.67
2019-02-17T22:28:14.098Z,74.47
2019-02-17T22:30:41.600Z,103.73
2019-02-17T22:33:09.057Z,110.00
2019-02-17T22:35:36.509Z,76.97
2019-02-17T22:38:03.926Z,75.60
2019-02-17T22:40:31.384Z,81.80
2019-02-17T22:42:58.982Z,61.40
2019-02-17T22:45:26.493Z,71.50
2019-02-17T22:47:53.933Z,65.43
2019-02-17T22:50:21.344Z,59.73
2019-02-17T22:52:48.844Z,58.47
2019-02-17T22:55:16.353Z,54.00
2019-02-17T22:57:43.800Z,50.90
2019-02-17T23:00:20.342Z,46.73
2019-02-17T23:02:47.889Z,45.53
2019-02-17T23:05:15.292Z,44.90
2019-02-17T23:07:42.816Z,42.00
2019-02-17T23:10:10.632Z,33.77
2019-02-17T23:12:38.139Z,34.50
2019-02-17T23:15:05.671Z,37.07
2019-02-17T23:17:33.123Z,32.87
2019-02-17T23:20:00.696Z,36.90
2019-02-17T23:22:28.154Z,30.93
2019-02-17T23:24:55.846Z,34.00
2019-02-17T23:27:23.404Z,31.40
2019-02-17T23:29:50.918Z,29.27
2019-02-17T23:32:18.538Z,29.47
2019-02-17T23:34:45.919Z,31.43
2019-02-17T23:37:13.425Z,26.37
2019-02-17T23:39:40.872Z,32.20
2019-02-17T23:42:08.371Z,25.57
2019-02-17T23:44:35.880Z,33.20
2019-02-17T23:47:03.282Z,32.00
2019-02-17T23:49:30.718Z,40.43
2019-02-17T23:51:58.182Z,32.07
2019-02-17T23:54:25.633Z,31.03
2019-02-17T23:56:53.096Z,25.77
2019-02-17T23:59:20.594Z,33.20
